Time;durP1;ratioP1;P1;durP2;ratioP2;P2;SDS_P1;SDS_P2;PMS_P1;PMS_P2;Temp;Humidity;BMP_temperature;BMP_pressure;BME280_temperature;BME280_humidity;BME280_pressure;Samples;Min_cycle;Max_cycle;Signal;HPM_P1;HPM_P2
2022/08/02 00:00:54;;;;;;;2.57;1.80;;;21.30;99.90;;;;;;5004220;28;20899;-68
2022/08/02 00:03:19;;;;;;;4.40;2.33;;;21.20;99.90;;;;;;5004774;28;20226;-68
2022/08/02 00:05:45;;;;;;;2.50;1.90;;;21.20;99.90;;;;;;5004400;28;20204;-69
2022/08/02 00:08:11;;;;;;;2.17;1.60;;;21.10;99.90;;;;;;5004936;28;21065;-71
2022/08/02 00:10:36;;;;;;;2.10;1.90;;;21.10;99.90;;;;;;5004711;28;20255;-70
2022/08/02 00:13:03;;;;;;;2.60;2.40;;;21.20;99.90;;;;;;5004623;28;20168;-71
2022/08/02 00:15:29;;;;;;;3.70;2.47;;;21.40;99.90;;;;;;5004492;28;20184;-71
2022/08/02 00:17:54;;;;;;;2.60;2.40;;;21.20;99.90;;;;;;5004055;28;20407;-68
2022/08/02 00:20:20;;;;;;;5.43;2.17;;;21.20;99.90;;;;;;5004674;28;20180;-71
2022/08/02 00:22:45;;;;;;;5.30;2.60;;;21.20;99.90;;;;;;5004390;28;20175;-69
2022/08/02 00:25:11;;;;;;;2.47;2.27;;;21.20;99.90;;;;;;5005266;28;20319;-71
2022/08/02 00:27:37;;;;;;;3.00;2.80;;;21.40;99.90;;;;;;5004824;28;20199;-70
2022/08/02 00:30:03;;;;;;;2.83;2.63;;;21.30;99.90;;;;;;5004616;28;20274;-71
2022/08/02 00:32:28;;;;;;;2.50;2.30;;;21.30;99.90;;;;;;5003781;28;20221;-72
2022/08/02 00:34:54;;;;;;;3.13;2.90;;;21.30;99.90;;;;;;4986869;28;20516;-71
2022/08/02 00:37:19;;;;;;;2.80;2.60;;;21.20;99.90;;;;;;5004324;28;20207;-71
2022/08/02 00:39:45;;;;;;;3.00;2.60;;;21.20;99.90;;;;;;5004677;28;20232;-66
2022/08/02 00:42:14;;;;;;;3.30;2.60;;;21.30;99.90;;;;;;5004496;28;20648;-70
2022/08/02 00:44:39;;;;;;;2.73;2.53;;;21.40;99.90;;;;;;5004120;28;20663;-71
2022/08/02 00:47:05;;;;;;;3.80;2.83;;;21.30;99.90;;;;;;5003711;28;20486;-71
2022/08/02 00:49:31;;;;;;;3.00;2.70;;;21.50;99.90;;;;;;5004234;28;20574;-70
2022/08/02 00:51:56;;;;;;;3.13;2.83;;;21.60;99.90;;;;;;5004507;28;20538;-72
2022/08/02 00:54:22;;;;;;;2.53;2.10;;;21.60;99.90;;;;;;5004405;28;20192;-70
2022/08/02 00:56:48;;;;;;;3.83;2.70;;;21.50;99.90;;;;;;5004838;28;20179;-69
2022/08/02 00:59:13;;;;;;;3.10;2.80;;;21.50;99.90;;;;;;5004511;28;20229;-70
2022/08/02 01:01:39;;;;;;;3.30;3.00;;;21.50;99.90;;;;;;5007876;28;20195;-72
2022/08/02 01:04:10;;;;;;;3.67;2.80;;;21.40;99.90;;;;;;5008548;28;20209;-71
2022/08/02 01:06:38;;;;;;;3.53;2.73;;;21.10;99.90;;;;;;5008218;28;20541;-71
2022/08/02 01:09:05;;;;;;;2.90;2.53;;;21.00;99.90;;;;;;5008634;28;20438;-71
2022/08/02 01:11:30;;;;;;;2.77;2.57;;;21.20;99.90;;;;;;5007865;28;20637;-71
2022/08/02 01:14:02;;;;;;;3.07;2.70;;;21.20;99.90;;;;;;5008043;28;20410;-72
2022/08/02 01:16:32;;;;;;;2.90;2.60;;;21.20;99.90;;;;;;5007503;28;20267;-72
2022/08/02 01:19:31;;;;;;;2.87;2.67;;;21.20;99.90;;;;;;5007953;28;20471;-71
2022/08/02 01:22:01;;;;;;;3.17;2.87;;;21.20;99.90;;;;;;5007349;28;20432;-71
2022/08/02 01:25:07;;;;;;;2.80;2.60;;;21.00;99.90;;;;;;5007816;28;20587;-69
2022/08/02 01:27:49;;;;;;;4.20;3.00;;;20.90;99.90;;;;;;4999024;28;20466;-71
2022/08/02 01:30:16;;;;;;;2.27;2.03;;;21.00;99.90;;;;;;5007511;28;20410;-70
2022/08/02 01:32:47;;;;;;;4.40;3.00;;;21.10;99.90;;;;;;5006661;28;20786;-69
2022/08/02 01:35:18;;;;;;;2.53;2.33;;;21.20;99.90;;;;;;5007694;28;20402;-69
2022/08/02 01:37:51;;;;;;;2.53;2.10;;;21.20;99.90;;;;;;5007541;28;20414;-68
2022/08/02 01:40:24;;;;;;;2.80;2.60;;;21.20;99.90;;;;;;5007519;28;20418;-70
2022/08/02 01:42:53;;;;;;;2.73;2.53;;;21.20;99.90;;;;;;5007633;28;20789;-69
2022/08/02 01:45:20;;;;;;;2.50;2.30;;;21.20;99.90;;;;;;5007513;28;20904;-69
2022/08/02 01:47:47;;;;;;;3.23;2.63;;;21.20;99.90;;;;;;5006822;28;20414;-70
2022/08/02 01:50:16;;;;;;;2.13;1.93;;;21.20;99.90;;;;;;5007725;28;20543;-71
2022/08/02 01:52:50;;;;;;;2.70;2.50;;;21.20;99.90;;;;;;5007364;28;20436;-71
2022/08/02 01:55:21;;;;;;;4.17;2.43;;;21.20;99.90;;;;;;5007459;28;20491;-70
2022/08/02 01:57:54;;;;;;;2.20;2.00;;;21.20;99.90;;;;;;5007089;28;20418;-71
2022/08/02 02:00:23;;;;;;;2.43;1.70;;;21.20;99.90;;;;;;5007305;28;20411;-71
2022/08/02 02:02:52;;;;;;;2.57;2.30;;;21.30;99.90;;;;;;5006512;28;20415;-70
2022/08/02 02:05:23;;;;;;;2.63;2.43;;;21.20;99.90;;;;;;5007068;28;20407;-71
2022/08/02 02:07:52;;;;;;;2.53;2.33;;;21.20;99.90;;;;;;5006975;28;20423;-70
2022/08/02 02:10:30;;;;;;;3.03;2.30;;;21.20;99.90;;;;;;5007223;28;20931;-71
2022/08/02 02:13:00;;;;;;;2.60;2.30;;;21.20;99.90;;;;;;5005843;28;20456;-72
2022/08/02 02:15:27;;;;;;;2.40;2.00;;;21.20;99.90;;;;;;5006745;28;20403;-69
2022/08/02 02:17:55;;;;;;;3.03;1.93;;;21.20;99.90;;;;;;5006644;28;20403;-70
2022/08/02 02:20:21;;;;;;;2.83;2.10;;;21.10;99.90;;;;;;5006892;28;20502;-70
2022/08/02 02:22:47;;;;;;;2.50;2.30;;;21.00;99.90;;;;;;5006709;28;20402;-69
2022/08/02 02:25:17;;;;;;;3.10;2.37;;;20.80;99.90;;;;;;5006727;28;20490;-70
2022/08/02 02:28:09;;;;;;;2.40;2.20;;;20.70;99.90;;;;;;5006679;28;20447;-71
2022/08/02 02:30:38;;;;;;;5.60;2.00;;;20.70;99.90;;;;;;5005943;28;20461;-71
2022/08/02 02:33:06;;;;;;;2.33;2.13;;;20.70;99.90;;;;;;5005920;28;20407;-69
2022/08/02 02:35:36;;;;;;;2.20;1.90;;;20.70;99.90;;;;;;5006603;28;20411;-70
2022/08/02 02:38:03;;;;;;;3.53;2.17;;;20.70;99.90;;;;;;5006370;28;20410;-70
2022/08/02 02:40:31;;;;;;;4.00;2.53;;;20.60;99.90;;;;;;5006316;28;20447;-70
2022/08/02 02:42:59;;;;;;;3.27;2.17;;;20.60;99.90;;;;;;5006186;28;20407;-70
2022/08/02 02:45:26;;;;;;;3.13;2.30;;;20.50;99.90;;;;;;5006144;28;20474;-67
2022/08/02 02:47:54;;;;;;;2.40;2.17;;;20.50;99.90;;;;;;5005676;28;20514;-70
2022/08/02 02:50:20;;;;;;;2.60;2.40;;;20.50;99.90;;;;;;5006128;28;20421;-69
2022/08/02 02:52:47;;;;;;;2.60;2.13;;;20.50;99.90;;;;;;5004888;28;20849;-70
2022/08/02 02:55:13;;;;;;;2.80;2.60;;;20.50;99.90;;;;;;5005884;28;20793;-69
2022/08/02 02:57:39;;;;;;;3.10;2.07;;;20.50;99.90;;;;;;5005922;28;22329;-70
2022/08/02 03:00:11;;;;;;;2.00;1.90;;;20.50;99.90;;;;;;5005538;28;20477;-69
2022/08/02 03:02:43;;;;;;;3.00;2.40;;;20.50;99.90;;;;;;5005343;28;20425;-69
2022/08/02 03:05:10;;;;;;;2.43;2.23;;;20.50;99.90;;;;;;5005924;28;20414;-70
2022/08/02 03:07:36;;;;;;;2.27;2.10;;;20.50;99.90;;;;;;5005602;28;20725;-69
2022/08/02 03:10:05;;;;;;;2.80;2.60;;;20.50;99.90;;;;;;5005792;28;20473;-68
2022/08/02 03:12:32;;;;;;;1.93;1.83;;;20.40;99.90;;;;;;5005933;28;20458;-69
2022/08/02 03:15:04;;;;;;;3.37;2.30;;;20.40;99.90;;;;;;5005641;28;20419;-70
2022/08/02 03:17:41;;;;;;;2.43;2.23;;;20.40;99.90;;;;;;5005430;28;20529;-70
2022/08/02 03:20:10;;;;;;;2.60;2.40;;;20.40;99.90;;;;;;5005636;28;20443;-71
2022/08/02 03:22:35;;;;;;;2.47;2.27;;;20.30;99.90;;;;;;5005319;28;20426;-71
2022/08/02 03:25:01;;;;;;;2.30;2.10;;;20.30;99.90;;;;;;5004288;28;20430;-70
2022/08/02 03:27:26;;;;;;;2.83;2.50;;;20.30;99.90;;;;;;5004889;28;20572;-69
2022/08/02 03:29:52;;;;;;;2.37;2.17;;;20.30;99.90;;;;;;5005425;28;20200;-71
2022/08/02 03:32:18;;;;;;;2.30;2.10;;;20.30;99.90;;;;;;5004345;28;20208;-69
2022/08/02 03:34:44;;;;;;;2.90;2.20;;;20.20;99.90;;;;;;5005693;28;20182;-70
2022/08/02 03:37:10;;;;;;;2.80;2.60;;;20.10;99.90;;;;;;5005796;28;20788;-71
2022/08/02 03:39:37;;;;;;;2.60;2.40;;;20.00;99.90;;;;;;5005688;28;20299;-68
2022/08/02 03:42:03;;;;;;;3.43;2.50;;;19.80;99.90;;;;;;5005536;28;20407;-70
2022/08/02 03:44:30;;;;;;;3.80;2.63;;;19.80;99.90;;;;;;4995511;28;20788;-68
2022/08/02 03:46:56;;;;;;;3.00;2.80;;;19.70;99.90;;;;;;5004936;28;20534;-69
2022/08/02 03:49:22;;;;;;;7.73;2.80;;;19.70;99.90;;;;;;5005084;28;20443;-69
2022/08/02 03:51:48;;;;;;;2.80;2.60;;;19.70;99.90;;;;;;5005216;28;20942;-69
2022/08/02 03:54:16;;;;;;;4.13;2.20;;;19.60;99.90;;;;;;5005527;28;20415;-68
2022/08/02 03:56:41;;;;;;;3.00;2.40;;;19.60;99.90;;;;;;5005223;28;20180;-69
2022/08/02 03:59:12;;;;;;;2.93;2.60;;;19.50;99.90;;;;;;5004005;28;21590;-71
2022/08/02 04:01:38;;;;;;;3.40;2.93;;;19.50;99.90;;;;;;5004113;28;20230;-71
2022/08/02 04:04:05;;;;;;;3.00;2.53;;;19.50;99.90;;;;;;5005117;28;20931;-69
2022/08/02 04:06:31;;;;;;;2.83;2.63;;;19.30;99.90;;;;;;5005113;28;20459;-70
2022/08/02 04:08:57;;;;;;;3.47;2.70;;;19.30;99.90;;;;;;5004579;28;20443;-70
2022/08/02 04:11:32;;;;;;;2.77;2.50;;;19.30;99.90;;;;;;5004629;28;20419;-70
2022/08/02 04:14:04;;;;;;;5.20;2.37;;;19.30;99.90;;;;;;5004826;28;20179;-68
2022/08/02 04:16:53;;;;;;;3.20;2.70;;;19.40;99.90;;;;;;5004333;28;20838;-69
2022/08/02 04:19:47;;;;;;;5.33;3.40;;;19.50;99.90;;;;;;4988852;28;20833;-68
2022/08/02 04:22:22;;;;;;;2.83;2.47;;;19.50;99.90;;;;;;5004874;28;20407;-69
2022/08/02 04:24:50;;;;;;;6.13;2.90;;;19.60;99.90;;;;;;5004591;28;20537;-69
2022/08/02 04:27:17;;;;;;;2.90;2.70;;;19.60;99.90;;;;;;5004899;28;21206;-70
2022/08/02 04:29:44;;;;;;;2.60;2.40;;;19.60;99.90;;;;;;5005266;28;20439;-70
2022/08/02 04:32:12;;;;;;;3.00;2.80;;;19.70;99.90;;;;;;5003961;28;20455;-70
2022/08/02 04:34:37;;;;;;;3.23;2.50;;;19.70;99.90;;;;;;5003775;28;20433;-70
2022/08/02 04:37:03;;;;;;;2.70;2.03;;;19.70;99.90;;;;;;5004482;28;20427;-70
2022/08/02 04:39:29;;;;;;;2.87;2.30;;;19.60;99.90;;;;;;5004247;28;20691;-70
2022/08/02 04:41:54;;;;;;;3.53;2.63;;;19.60;99.90;;;;;;5004374;28;20697;-70
2022/08/02 04:44:20;;;;;;;3.20;2.53;;;19.50;99.90;;;;;;5004147;28;20191;-70
2022/08/02 04:46:46;;;;;;;2.60;2.30;;;19.50;99.90;;;;;;5003828;28;20261;-70
2022/08/02 04:49:12;;;;;;;3.03;2.77;;;19.40;99.90;;;;;;5004238;28;20588;-70
2022/08/02 04:51:40;;;;;;;2.87;2.50;;;19.60;99.90;;;;;;5004500;28;20295;-69
2022/08/02 04:54:07;;;;;;;5.87;2.90;;;19.70;99.90;;;;;;5004158;28;20545;-70
2022/08/02 04:56:33;;;;;;;4.20;2.70;;;19.80;99.90;;;;;;5004233;28;20430;-69
2022/08/02 04:58:59;;;;;;;2.70;2.50;;;19.80;99.90;;;;;;5003954;28;20455;-70
2022/08/02 05:01:24;;;;;;;3.63;2.40;;;19.90;99.90;;;;;;5004031;28;20184;-69
2022/08/02 05:03:50;;;;;;;4.37;3.07;;;19.90;99.90;;;;;;5003773;28;20188;-70
2022/08/02 05:06:18;;;;;;;3.63;2.70;;;19.90;99.90;;;;;;5004126;28;20200;-70
2022/08/02 05:08:44;;;;;;;3.77;2.53;;;20.10;99.90;;;;;;5004069;28;20677;-70
2022/08/02 05:11:10;;;;;;;3.90;2.80;;;20.10;99.90;;;;;;5004032;28;20476;-70
2022/08/02 05:13:35;;;;;;;2.33;2.13;;;20.00;99.90;;;;;;5003973;28;20423;-70
2022/08/02 05:16:03;;;;;;;2.83;2.40;;;20.10;99.90;;;;;;5003888;28;20507;-70
2022/08/02 05:18:29;;;;;;;2.33;2.13;;;20.30;99.90;;;;;;5003585;28;20433;-70
2022/08/02 05:20:54;;;;;;;2.90;2.13;;;20.50;99.90;;;;;;5003833;28;20943;-70
2022/08/02 05:23:20;;;;;;;2.77;2.57;;;20.70;99.90;;;;;;5004059;28;20418;-70
2022/08/02 05:25:46;;;;;;;3.00;2.70;;;20.90;99.90;;;;;;5004348;28;20203;-70
2022/08/02 05:28:11;;;;;;;2.43;2.23;;;21.00;99.90;;;;;;5003695;28;20196;-70
2022/08/02 05:30:37;;;;;;;2.97;2.70;;;21.10;99.90;;;;;;5003838;28;21187;-70
2022/08/02 05:33:04;;;;;;;3.70;2.50;;;21.20;99.90;;;;;;5002060;28;20424;-70
2022/08/02 05:35:30;;;;;;;2.60;2.40;;;21.40;99.90;;;;;;5003849;28;20422;-70
2022/08/02 05:37:55;;;;;;;5.50;2.53;;;21.50;99.90;;;;;;5003611;28;20407;-70
2022/08/02 05:40:21;;;;;;;3.40;2.87;;;21.60;99.90;;;;;;5003813;28;20210;-70
2022/08/02 05:42:46;;;;;;;3.87;2.80;;;21.70;99.90;;;;;;4985938;28;20172;-71
2022/08/02 05:45:12;;;;;;;4.00;3.37;;;21.80;99.90;;;;;;5004013;28;20207;-70
2022/08/02 05:47:38;;;;;;;3.97;3.47;;;21.90;99.90;;;;;;5005172;28;20188;-70
2022/08/02 05:50:07;;;;;;;2.80;2.60;;;21.90;99.90;;;;;;5007321;28;20581;-70
2022/08/02 05:52:44;;;;;;;3.10;2.77;;;21.90;99.90;;;;;;4989939;28;20774;-69
2022/08/02 05:55:26;;;;;;;3.07;2.60;;;22.10;99.90;;;;;;5007475;28;20406;-70
2022/08/02 05:58:06;;;;;;;3.07;2.43;;;22.20;99.90;;;;;;5007161;28;20568;-70
2022/08/02 06:00:35;;;;;;;2.63;2.43;;;22.30;99.90;;;;;;5033130;22;20537;-69
2022/08/02 06:03:00;;;;;;;3.33;3.00;;;22.50;99.90;;;;;;5006106;28;20410;-67
2022/08/02 06:05:30;;;;;;;2.90;2.70;;;22.50;99.90;;;;;;5006553;28;20900;-69
2022/08/02 06:07:58;;;;;;;3.23;2.57;;;22.50;99.90;;;;;;5006444;28;20186;-67
2022/08/02 06:10:26;;;;;;;3.47;2.93;;;22.50;99.90;;;;;;5006319;28;20431;-65
2022/08/02 06:13:15;;;;;;;4.60;2.80;;;22.40;99.90;;;;;;5006996;28;20465;-67
2022/08/02 06:15:41;;;;;;;4.17;3.10;;;22.50;99.90;;;;;;5006539;28;20990;-67
2022/08/02 06:18:07;;;;;;;3.53;2.70;;;22.60;99.90;;;;;;5006197;28;20896;-66
2022/08/02 06:20:35;;;;;;;3.50;3.07;;;22.60;99.90;;;;;;5006287;28;21095;-68
2022/08/02 06:23:05;;;;;;;3.40;2.93;;;22.60;99.90;;;;;;5006554;28;20518;-67
2022/08/02 06:25:33;;;;;;;3.87;3.57;;;22.60;99.90;;;;;;5006046;28;20403;-68
2022/08/02 06:28:04;;;;;;;7.40;3.90;;;22.40;99.90;;;;;;5006138;28;20418;-68
2022/08/02 06:30:31;;;;;;;4.90;3.10;;;22.20;99.90;;;;;;5006011;28;20529;-68
2022/08/02 06:32:57;;;;;;;4.60;4.17;;;22.30;99.90;;;;;;5004738;28;20422;-68
2022/08/02 06:35:36;;;;;;;4.87;4.47;;;22.20;99.90;;;;;;5005909;28;20414;-70
2022/08/02 06:38:02;;;;;;;3.70;3.40;;;22.10;99.90;;;;;;5006181;28;20829;-67
2022/08/02 06:40:42;;;;;;;5.20;4.43;;;22.10;99.90;;;;;;5006144;28;20434;-67
2022/08/02 06:43:12;;;;;;;5.10;4.60;;;22.00;99.90;;;;;;5006018;28;20426;-66
2022/08/02 06:45:38;;;;;;;6.33;4.10;;;22.00;99.90;;;;;;5005296;28;21003;-68
2022/08/02 06:48:04;;;;;;;4.30;3.90;;;22.00;99.90;;;;;;4987440;28;20427;-66
2022/08/02 06:50:30;;;;;;;4.80;4.30;;;22.30;99.90;;;;;;5005441;28;20446;-68
2022/08/02 06:52:56;;;;;;;5.20;4.20;;;22.40;99.90;;;;;;5004507;28;20430;-69
2022/08/02 06:55:21;;;;;;;9.13;4.67;;;22.50;99.90;;;;;;5005765;28;20188;-69
2022/08/02 06:57:47;;;;;;;3.83;3.47;;;22.30;99.90;;;;;;5005983;28;20230;-68
2022/08/02 07:00:13;;;;;;;3.93;3.63;;;22.50;99.90;;;;;;5004892;28;20238;-68
2022/08/02 07:02:39;;;;;;;4.10;3.70;;;22.70;99.90;;;;;;5004830;28;20187;-68
2022/08/02 07:05:06;;;;;;;4.30;3.47;;;23.00;99.90;;;;;;5005187;28;20733;-68
2022/08/02 07:07:32;;;;;;;5.10;3.60;;;23.10;99.90;;;;;;5005553;28;20204;-68
2022/08/02 07:09:58;;;;;;;5.23;4.20;;;23.10;99.90;;;;;;5005483;28;20829;-68
2022/08/02 07:12:24;;;;;;;4.27;3.50;;;22.90;99.90;;;;;;5005384;28;20186;-68
2022/08/02 07:14:50;;;;;;;4.73;4.33;;;23.10;99.90;;;;;;5005137;28;20869;-67
2022/08/02 07:17:15;;;;;;;4.63;4.23;;;23.30;99.90;;;;;;5005398;28;20431;-70
2022/08/02 07:19:41;;;;;;;5.20;4.10;;;23.30;99.90;;;;;;5004899;28;20207;-67
2022/08/02 07:22:07;;;;;;;4.70;3.50;;;23.50;99.90;;;;;;5005063;28;20338;-66
2022/08/02 07:24:32;;;;;;;4.37;3.83;;;23.70;99.90;;;;;;5004816;28;20222;-66
2022/08/02 07:26:58;;;;;;;4.30;3.90;;;23.70;99.90;;;;;;5004697;28;20208;-69
2022/08/02 07:29:24;;;;;;;7.30;5.07;;;24.00;99.90;;;;;;5005208;28;20234;-66
2022/08/02 07:31:50;;;;;;;5.20;4.70;;;23.90;99.90;;;;;;5004209;28;21082;-67
2022/08/02 07:34:15;;;;;;;4.70;4.30;;;23.80;99.90;;;;;;5005064;28;20218;-68
2022/08/02 07:36:41;;;;;;;4.63;4.10;;;23.70;99.90;;;;;;5004760;28;20582;-69
2022/08/02 07:39:07;;;;;;;7.07;4.43;;;23.60;99.90;;;;;;5004715;28;20295;-69
2022/08/02 07:41:33;;;;;;;5.07;4.40;;;23.70;99.90;;;;;;5004845;28;20505;-69
2022/08/02 07:43:58;;;;;;;5.50;4.93;;;23.80;99.90;;;;;;5004565;28;20599;-70
2022/08/02 07:46:24;;;;;;;5.30;4.30;;;23.90;99.90;;;;;;5004517;28;20242;-68
2022/08/02 07:48:53;;;;;;;5.63;4.87;;;24.00;99.90;;;;;;5003894;28;20487;-69
2022/08/02 07:51:19;;;;;;;5.37;4.70;;;23.90;99.90;;;;;;5004840;28;20195;-68
2022/08/02 07:53:45;;;;;;;6.17;5.07;;;24.20;99.90;;;;;;5004317;28;20426;-69
2022/08/02 07:56:11;;;;;;;4.80;4.40;;;24.50;99.90;;;;;;5003827;28;20427;-68
2022/08/02 07:58:36;;;;;;;5.07;4.57;;;24.60;99.90;;;;;;5004342;28;20192;-69
2022/08/02 08:01:02;;;;;;;6.53;5.10;;;24.90;99.90;;;;;;5004107;28;20555;-70
2022/08/02 08:03:28;;;;;;;4.90;4.40;;;24.50;99.90;;;;;;5003639;28;20199;-68
2022/08/02 08:05:53;;;;;;;5.03;3.93;;;24.50;99.90;;;;;;5004079;28;20587;-69
2022/08/02 08:08:19;;;;;;;5.53;5.00;;;24.90;99.90;;;;;;5004660;28;20270;-69
2022/08/02 08:10:45;;;;;;;4.60;4.20;;;25.20;99.90;;;;;;5003281;28;20199;-69
2022/08/02 08:13:11;;;;;;;4.70;4.30;;;25.20;99.90;;;;;;5004160;28;20192;-69
2022/08/02 08:15:37;;;;;;;6.47;4.60;;;25.40;99.90;;;;;;4986741;28;20423;-69
2022/08/02 08:18:02;;;;;;;5.63;4.70;;;24.70;99.90;;;;;;5003627;28;20210;-70
2022/08/02 08:20:28;;;;;;;4.63;4.23;;;24.30;99.90;;;;;;5004128;28;20266;-69
2022/08/02 08:22:53;;;;;;;6.53;5.23;;;24.60;99.90;;;;;;5003925;28;20717;-69
2022/08/02 08:25:19;;;;;;;4.83;4.43;;;24.30;99.90;;;;;;5003859;28;20184;-68
2022/08/02 08:27:51;;;;;;;5.53;4.93;;;24.30;99.90;;;;;;4986217;28;20211;-71
2022/08/02 08:30:18;;;;;;;4.83;4.33;;;24.50;99.90;;;;;;5003833;28;20215;-70
2022/08/02 08:32:44;;;;;;;5.93;4.67;;;24.60;99.90;;;;;;5002763;28;20431;-69
2022/08/02 08:35:11;;;;;;;5.87;4.20;;;24.90;99.90;;;;;;5004022;28;20469;-68
2022/08/02 08:37:38;;;;;;;4.53;4.13;;;25.20;99.90;;;;;;5004244;28;21150;-69
2022/08/02 08:40:07;;;;;;;4.60;4.30;;;25.20;99.90;;;;;;5004376;28;20529;-68
2022/08/02 08:42:35;;;;;;;6.20;4.20;;;25.00;99.90;;;;;;5004281;28;20462;-69
2022/08/02 08:45:01;;;;;;;5.03;4.63;;;25.00;99.90;;;;;;5004024;28;20831;-69
2022/08/02 08:47:35;;;;;;;5.93;5.33;;;24.90;99.90;;;;;;5002972;28;20517;-69
2022/08/02 08:50:07;;;;;;;5.03;4.50;;;25.00;99.90;;;;;;5003682;28;20664;-68
2022/08/02 08:52:38;;;;;;;5.37;4.90;;;25.20;99.90;;;;;;5003603;28;20430;-68
2022/08/02 08:55:05;;;;;;;5.10;4.60;;;25.10;99.90;;;;;;5003750;28;20541;-70
2022/08/02 08:57:38;;;;;;;5.10;4.60;;;25.30;99.90;;;;;;5003475;28;20463;-67
2022/08/02 09:00:04;;;;;;;5.33;4.83;;;25.40;99.90;;;;;;5003377;28;20971;-69
2022/08/02 09:02:33;;;;;;;4.57;3.90;;;25.70;99.90;;;;;;5002866;28;20427;-68
2022/08/02 09:04:59;;;;;;;4.90;4.50;;;25.70;99.90;;;;;;5002882;28;20441;-69
2022/08/02 09:07:25;;;;;;;5.23;4.73;;;25.90;99.90;;;;;;5002707;28;20462;-71
2022/08/02 09:09:51;;;;;;;4.93;4.53;;;25.80;99.90;;;;;;5003732;28;20439;-69
2022/08/02 09:12:18;;;;;;;4.87;4.37;;;25.70;99.90;;;;;;5003664;28;20547;-69
2022/08/02 09:14:45;;;;;;;4.93;4.53;;;25.70;99.90;;;;;;5003851;28;20523;-70
2022/08/02 09:17:11;;;;;;;4.90;4.50;;;25.80;99.90;;;;;;5003247;28;20455;-70
2022/08/02 09:19:37;;;;;;;5.07;4.67;;;25.90;99.90;;;;;;5003360;28;20530;-69
2022/08/02 09:22:13;;;;;;;4.90;4.40;;;26.20;99.90;;;;;;5006374;28;20506;-69
2022/08/02 09:24:50;;;;;;;4.60;4.20;;;26.40;99.90;;;;;;5006858;28;20784;-68
2022/08/02 09:27:18;;;;;;;6.20;5.10;;;26.60;99.90;;;;;;5006775;28;21681;-70
2022/08/02 09:29:50;;;;;;;7.17;5.00;;;26.70;99.90;;;;;;5007530;28;20438;-69
2022/08/02 09:32:17;;;;;;;5.87;5.47;;;26.90;99.90;;;;;;5006655;28;20996;-71
2022/08/02 09:34:53;;;;;;;4.50;3.97;;;26.70;99.90;;;;;;5007169;28;20427;-68
2022/08/02 09:37:29;;;;;;;6.00;5.47;;;26.90;99.90;;;;;;5006926;28;20418;-69
2022/08/02 09:39:58;;;;;;;5.90;5.40;;;26.90;99.90;;;;;;5007166;28;20438;-69
2022/08/02 09:42:23;;;;;;;6.43;4.83;;;26.90;99.90;;;;;;5007328;28;20793;-69
2022/08/02 09:44:59;;;;;;;6.33;4.20;;;26.90;99.90;;;;;;5006753;28;20407;-69
2022/08/02 09:47:26;;;;;;;5.37;4.70;;;27.10;99.90;;;;;;5006148;28;20265;-70
2022/08/02 09:49:56;;;;;;;5.50;5.10;;;27.30;99.90;;;;;;5007099;28;21121;-68
2022/08/02 09:52:26;;;;;;;5.23;4.30;;;26.90;99.90;;;;;;5006956;28;20422;-68
2022/08/02 09:54:52;;;;;;;4.50;4.20;;;26.80;99.90;;;;;;5006922;28;20760;-69
2022/08/02 09:57:27;;;;;;;4.50;4.10;;;26.90;99.90;;;;;;4989259;28;20745;-68
2022/08/02 09:59:56;;;;;;;6.80;5.17;;;26.90;99.90;;;;;;5006961;28;20250;-69
2022/08/02 10:02:22;;;;;;;5.70;5.30;;;27.10;99.90;;;;;;5006731;28;21310;-69
2022/08/02 10:04:47;;;;;;;4.90;4.50;;;27.30;99.90;;;;;;5006872;28;20423;-69
2022/08/02 10:07:13;;;;;;;4.60;4.20;;;27.40;99.80;;;;;;5006664;28;20257;-69
2022/08/02 10:09:40;;;;;;;4.97;4.43;;;27.50;99.90;;;;;;5006891;28;20660;-68
2022/08/02 10:12:06;;;;;;;4.43;3.93;;;27.50;99.50;;;;;;5006871;28;20183;-68
2022/08/02 10:14:34;;;;;;;5.10;4.63;;;27.60;99.40;;;;;;5006587;28;20472;-68
2022/08/02 10:17:00;;;;;;;5.07;4.20;;;27.60;99.10;;;;;;5006422;28;20422;-68
2022/08/02 10:19:26;;;;;;;5.83;4.00;;;27.90;99.30;;;;;;5006028;28;20868;-68
2022/08/02 10:21:56;;;;;;;4.33;4.03;;;27.90;99.30;;;;;;5006511;28;20258;-69
2022/08/02 10:24:26;;;;;;;4.77;4.37;;;27.90;98.40;;;;;;5006375;28;20454;-68
2022/08/02 10:26:53;;;;;;;5.70;5.10;;;27.40;98.70;;;;;;5005954;28;20471;-68
2022/08/02 10:29:25;;;;;;;4.90;4.40;;;27.30;98.90;;;;;;5006333;28;20485;-68
2022/08/02 10:32:00;;;;;;;4.77;4.27;;;27.30;99.00;;;;;;5006393;28;20417;-68
2022/08/02 10:34:54;;;;;;;4.90;4.50;;;27.70;98.20;;;;;;5005549;28;20414;-69
2022/08/02 10:37:21;;;;;;;4.70;4.30;;;27.90;98.70;;;;;;4969577;28;20493;-69
2022/08/02 10:39:54;;;;;;;4.60;3.73;;;28.20;98.60;;;;;;5005742;28;20542;-71
2022/08/02 10:42:42;;;;;;;4.60;3.90;;;28.10;98.00;;;;;;5006204;28;20786;-70
2022/08/02 10:45:10;;;;;;;3.97;3.67;;;28.10;98.10;;;;;;4987820;28;20476;-69
2022/08/02 10:47:35;;;;;;;4.10;3.80;;;28.10;97.70;;;;;;5005149;28;20489;-68
2022/08/02 10:50:02;;;;;;;4.20;3.90;;;28.10;97.40;;;;;;5006047;28;20478;-68
2022/08/02 10:52:29;;;;;;;4.40;4.00;;;28.00;98.10;;;;;;5005857;28;20180;-69
2022/08/02 10:54:57;;;;;;;5.17;4.13;;;28.40;97.80;;;;;;5006061;28;20782;-70
2022/08/02 10:57:24;;;;;;;5.07;4.60;;;28.70;97.40;;;;;;5005723;28;20514;-71
2022/08/02 11:00:22;;;;;;;8.07;3.90;;;28.80;96.20;;;;;;5005135;28;20963;-69
2022/08/02 11:02:47;;;;;;;4.80;4.30;;;28.80;95.70;;;;;;5004604;28;20449;-69
2022/08/02 11:05:15;;;;;;;6.20;3.97;;;29.20;95.00;;;;;;5005733;28;20455;-69
2022/08/02 11:07:45;;;;;;;3.97;3.33;;;29.50;94.50;;;;;;4987883;28;20302;-69
2022/08/02 11:10:35;;;;;;;3.53;3.23;;;29.90;93.20;;;;;;5005417;28;20470;-69
2022/08/02 11:13:02;;;;;;;4.00;3.70;;;29.50;92.90;;;;;;5005713;28;20756;-69
2022/08/02 11:15:29;;;;;;;4.83;4.17;;;29.70;93.30;;;;;;5005679;28;20426;-67
2022/08/02 11:17:57;;;;;;;3.80;3.50;;;30.00;93.40;;;;;;5004979;28;20430;-71
2022/08/02 11:20:25;;;;;;;3.83;3.43;;;30.50;92.40;;;;;;5005321;28;20445;-69
2022/08/02 11:22:52;;;;;;;4.57;3.40;;;30.30;92.40;;;;;;5005290;28;20788;-67
2022/08/02 11:25:21;;;;;;;4.40;4.00;;;30.60;92.00;;;;;;5005563;28;20423;-69
2022/08/02 11:27:57;;;;;;;4.27;3.97;;;31.50;92.10;;;;;;5004951;28;20471;-68
2022/08/02 11:30:24;;;;;;;4.50;3.90;;;32.00;88.00;;;;;;5004725;28;20453;-69
2022/08/02 11:32:55;;;;;;;4.37;3.67;;;32.70;84.30;;;;;;5004116;28;20423;-68
2022/08/02 11:35:21;;;;;;;4.60;3.83;;;33.90;80.90;;;;;;5005248;28;20410;-69
2022/08/02 11:37:47;;;;;;;4.37;3.60;;;35.30;73.40;;;;;;5004752;28;20427;-67
2022/08/02 11:40:16;;;;;;;6.03;4.63;;;33.40;76.90;;;;;;5005035;28;20449;-69
2022/08/02 11:42:44;;;;;;;4.03;3.73;;;33.60;76.90;;;;;;5004889;28;20730;-68
2022/08/02 11:45:12;;;;;;;3.83;3.53;;;34.00;76.10;;;;;;5003547;28;20910;-68
2022/08/02 11:47:52;;;;;;;3.90;3.60;;;32.90;76.70;;;;;;4986766;28;20482;-70
2022/08/02 11:50:22;;;;;;;5.93;4.20;;;31.50;81.50;;;;;;5004603;28;20422;-68
2022/08/02 11:52:48;;;;;;;4.03;3.73;;;31.20;82.60;;;;;;5005099;28;20892;-68
2022/08/02 11:55:13;;;;;;;6.43;3.60;;;31.10;83.60;;;;;;5004725;28;20415;-68
2022/08/02 11:57:40;;;;;;;3.17;2.87;;;32.00;80.90;;;;;;5004693;28;20183;-70
2022/08/02 12:00:16;;;;;;;3.83;3.57;;;32.60;78.00;;;;;;5003411;28;20224;-68
2022/08/02 12:02:47;;;;;;;3.80;3.50;;;32.40;76.70;;;;;;5004088;28;20958;-68
2022/08/02 12:05:17;;;;;;;4.00;3.60;;;32.50;76.40;;;;;;5004276;28;20533;-68
2022/08/02 12:07:44;;;;;;;4.13;3.67;;;32.40;79.50;;;;;;5004588;28;20987;-69
2022/08/02 12:10:21;;;;;;;4.20;3.90;;;31.80;80.50;;;;;;5004125;28;21029;-67
2022/08/02 12:12:57;;;;;;;3.40;3.20;;;31.40;82.30;;;;;;5004171;28;20497;-69
2022/08/02 12:15:32;;;;;;;3.60;3.30;;;31.10;81.20;;;;;;5004326;28;20416;-71
2022/08/02 12:20:42;;;;;;;3.90;3.50;;;30.90;82.70;;;;;;5004162;28;20528;-69
2022/08/02 12:23:08;;;;;;;4.23;3.83;;;31.20;81.70;;;;;;5003833;28;20454;-68
2022/08/02 12:25:34;;;;;;;4.63;4.23;;;31.20;81.10;;;;;;5003858;28;20262;-69
2022/08/02 12:28:21;;;;;;;4.40;4.00;;;30.60;83.10;;;;;;5003978;28;20322;-69
2022/08/02 12:30:58;;;;;;;4.53;4.10;;;30.30;83.90;;;;;;4986620;28;20203;-71
2022/08/02 12:33:26;;;;;;;4.23;3.93;;;30.40;84.60;;;;;;5002692;28;20511;-69
2022/08/02 12:35:52;;;;;;;4.17;3.77;;;30.40;84.50;;;;;;4986366;28;20853;-69
2022/08/02 12:38:17;;;;;;;4.10;3.70;;;30.40;83.80;;;;;;5004090;28;20488;-68
2022/08/02 12:40:44;;;;;;;4.47;3.90;;;30.90;82.80;;;;;;5003711;28;20207;-69
2022/08/02 12:43:41;;;;;;;4.70;3.67;;;31.70;80.20;;;;;;5004118;28;20591;-69
2022/08/02 12:46:16;;;;;;;3.50;3.20;;;31.80;78.50;;;;;;5002643;28;20488;-70
2022/08/02 12:48:41;;;;;;;4.17;3.77;;;32.80;75.50;;;;;;5003446;28;20775;-68
2022/08/02 12:51:22;;;;;;;4.60;3.90;;;34.20;73.30;;;;;;5004041;28;20414;-68
2022/08/02 12:53:48;;;;;;;4.03;3.73;;;35.40;68.10;;;;;;5003867;28;20186;-68
2022/08/02 12:56:29;;;;;;;4.93;3.40;;;36.20;65.20;;;;;;5003404;28;20935;-68
2022/08/02 12:58:55;;;;;;;3.07;2.80;;;37.10;62.90;;;;;;5003990;28;20458;-68